createdAt,value
2019-05-06T00:01:35.508Z,16.20
2019-05-06T00:05:01.111Z,12.70
2019-05-06T00:08:26.696Z,11.10
2019-05-06T00:11:54.361Z,7.87
2019-05-06T00:15:19.858Z,14.77
2019-05-06T00:18:45.466Z,14.03
2019-05-06T00:22:11.070Z,11.87
2019-05-06T00:25:38.293Z,14.20
2019-05-06T00:29:05.603Z,13.63
2019-05-06T00:32:31.183Z,21.50
2019-05-06T00:35:56.776Z,20.63
2019-05-06T00:39:26.960Z,12.73
2019-05-06T00:42:54.569Z,14.00
2019-05-06T00:46:20.152Z,16.93
2019-05-06T00:49:45.859Z,14.17
2019-05-06T00:53:14.178Z,17.67
2019-05-06T00:56:39.783Z,16.20
2019-05-06T01:00:07.229Z,11.63
2019-05-06T01:03:34.702Z,14.70
2019-05-06T01:07:00.479Z,11.90
2019-05-06T01:10:27.479Z,15.17
2019-05-06T01:13:57.402Z,15.30
2019-05-06T01:17:24.334Z,11.47
2019-05-06T01:20:54.017Z,14.17
2019-05-06T01:24:19.225Z,12.70
2019-05-06T01:27:45.880Z,11.20
2019-05-06T01:31:11.473Z,15.60
2019-05-06T01:34:37.081Z,12.80
2019-05-06T01:38:24.283Z,11.57
2019-05-06T01:41:49.446Z,20.83
2019-05-06T01:45:15.713Z,20.90
2019-05-06T01:48:49.955Z,13.13
2019-05-06T01:52:15.570Z,16.73
2019-05-06T01:55:41.153Z,16.33
2019-05-06T01:59:07.328Z,12.57
2019-05-06T02:02:34.354Z,17.43
2019-05-06T02:06:00.118Z,14.03
2019-05-06T02:09:25.976Z,14.43
2019-05-06T02:12:53.894Z,19.30
2019-05-06T02:16:18.875Z,12.03
2019-05-06T02:19:44.467Z,15.17
2019-05-06T02:23:11.690Z,14.63
2019-05-06T02:26:37.337Z,12.07
2019-05-06T02:30:11.670Z,19.97
2019-05-06T02:33:47.973Z,22.93
2019-05-06T02:37:14.736Z,14.27
2019-05-06T02:40:42.662Z,16.30
2019-05-06T02:44:12.961Z,15.40
2019-05-06T02:47:53.848Z,13.50
2019-05-06T02:51:24.182Z,12.43
2019-05-06T02:54:49.588Z,20.03
2019-05-06T02:58:15.207Z,16.27
2019-05-06T03:01:43.204Z,14.17
2019-05-06T03:05:08.223Z,17.87
2019-05-06T03:08:33.954Z,15.10
2019-05-06T03:12:03.483Z,18.07
2019-05-06T03:15:27.926Z,16.17
2019-05-06T03:18:53.671Z,19.87
2019-05-06T03:22:27.380Z,12.87
2019-05-06T03:25:48.229Z,15.60
2019-05-06T03:29:13.876Z,14.43
2019-05-06T03:33:14.241Z,12.40
2019-05-06T03:36:16.390Z,13.13
2019-05-06T03:39:34.243Z,22.60
2019-05-06T03:43:02.626Z,17.97
2019-05-06T03:46:35.921Z,18.00
2019-05-06T03:50:04.724Z,20.17
2019-05-06T03:53:33.360Z,14.20
2019-05-06T03:56:59.531Z,20.30
2019-05-06T04:00:25.426Z,14.67
2019-05-06T04:03:55.882Z,15.00
2019-05-06T04:07:19.065Z,19.33
2019-05-06T04:10:45.590Z,17.00
2019-05-06T04:14:13.929Z,20.03
2019-05-06T04:17:44.289Z,21.00
2019-05-06T04:21:10.397Z,17.90
2019-05-06T04:24:43.551Z,17.87
2019-05-06T04:28:13.869Z,21.87
2019-05-06T04:31:39.784Z,30.27
2019-05-06T04:35:07.354Z,18.87
2019-05-06T04:38:33.966Z,21.43
2019-05-06T04:41:59.574Z,15.50
2019-05-06T04:45:25.162Z,25.23
2019-05-06T04:48:53.597Z,27.13
2019-05-06T04:52:18.381Z,21.47
2019-05-06T04:55:44.190Z,18.30
2019-05-06T04:59:09.841Z,19.53
2019-05-06T05:02:36.751Z,20.00
2019-05-06T05:06:05.692Z,28.47
2019-05-06T05:09:32.601Z,19.63
2019-05-06T05:13:07.037Z,17.23
2019-05-06T05:16:37.231Z,21.17
2019-05-06T05:20:03.272Z,20.60
2019-05-06T05:23:28.860Z,18.50
2019-05-06T05:26:54.547Z,19.93
2019-05-06T05:30:21.905Z,20.20
2019-05-06T05:33:47.682Z,12.47
2019-05-06T05:37:13.276Z,22.43
2019-05-06T05:40:39.213Z,19.70
2019-05-06T05:44:19.468Z,17.70
2019-05-06T05:47:46.026Z,17.90
2019-05-06T05:51:12.750Z,16.53
2019-05-06T05:54:38.472Z,25.00
2019-05-06T05:58:04.495Z,22.07
2019-05-06T06:01:32.461Z,16.53
2019-05-06T06:04:57.947Z,19.67
2019-05-06T06:08:24.832Z,22.80
2019-05-06T06:11:53.401Z,20.47
2019-05-06T06:15:29.339Z,19.63
2019-05-06T06:18:59.964Z,27.83
2019-05-06T06:22:27.382Z,16.97
2019-05-06T06:25:53.381Z,22.13
2019-05-06T06:29:19.338Z,18.37
2019-05-06T06:32:45.017Z,21.83
2019-05-06T06:36:16.300Z,18.57
2019-05-06T06:39:43.734Z,15.83
2019-05-06T06:43:12.428Z,21.30
2019-05-06T06:46:38.196Z,18.13
2019-05-06T06:50:04.523Z,34.93
2019-05-06T06:53:30.107Z,14.37
2019-05-06T06:57:05.081Z,15.53
2019-05-06T07:00:24.597Z,15.13
2019-05-06T07:03:53.496Z,25.67
2019-05-06T07:07:22.713Z,18.70
2019-05-06T07:10:48.070Z,20.60
2019-05-06T07:14:15.397Z,12.93
2019-05-06T07:17:41.885Z,11.30
2019-05-06T07:21:09.228Z,24.57
2019-05-06T07:24:34.978Z,7.67
2019-05-06T07:28:02.806Z,10.43
2019-05-06T07:31:27.880Z,7.77
2019-05-06T07:34:53.872Z,7.67
2019-05-06T07:38:19.522Z,10.43
2019-05-06T07:41:46.784Z,14.27
2019-05-06T07:45:32.921Z,10.60
2019-05-06T07:48:58.694Z,13.77
2019-05-06T07:52:24.343Z,12.13
2019-05-06T07:55:52.372Z,6.97
2019-05-06T07:59:17.269Z,12.60
2019-05-06T08:02:42.891Z,13.57
2019-05-06T08:06:08.455Z,8.07
2019-05-06T08:09:34.251Z,9.63
2019-05-06T08:13:02.479Z,12.13
2019-05-06T08:16:29.283Z,8.63
2019-05-06T08:19:54.862Z,6.90
2019-05-06T08:23:22.050Z,6.07
2019-05-06T08:26:48.893Z,7.97
2019-05-06T08:30:14.922Z,9.57
2019-05-06T08:33:40.612Z,5.70
2019-05-06T08:37:07.861Z,8.37
2019-05-06T08:40:33.445Z,9.40
2019-05-06T08:43:59.526Z,6.30
2019-05-06T08:47:25.107Z,6.37
2019-05-06T08:50:55.289Z,8.83
2019-05-06T08:54:32.357Z,10.73
2019-05-06T08:57:57.626Z,4.00
2019-05-06T09:01:32.578Z,9.17
2019-05-06T09:04:58.333Z,6.97
2019-05-06T09:08:24.851Z,8.57
2019-05-06T09:11:50.439Z,8.97
2019-05-06T09:15:16.079Z,5.03
2019-05-06T09:18:42.513Z,6.00
2019-05-06T09:22:08.369Z,7.53
2019-05-06T09:25:33.989Z,5.27
2019-05-06T09:29:02.252Z,7.87
2019-05-06T09:32:36.005Z,6.97
2019-05-06T09:35:59.994Z,6.90
2019-05-06T09:39:25.628Z,7.33
2019-05-06T09:42:52.089Z,8.80
2019-05-06T09:46:17.986Z,6.50
2019-05-06T09:49:44.918Z,5.93
2019-05-06T09:53:13.123Z,10.23
2019-05-06T09:56:43.469Z,11.10
2019-05-06T10:00:09.552Z,6.47
2019-05-06T10:03:36.917Z,16.83
2019-05-06T10:07:02.780Z,7.20
2019-05-06T10:10:28.589Z,5.13
2019-05-06T10:13:54.270Z,12.37
2019-05-06T10:17:19.913Z,6.77
2019-05-06T10:20:48.581Z,6.37
2019-05-06T10:24:14.218Z,7.37
2019-05-06T10:27:42.216Z,8.57
2019-05-06T10:31:09.870Z,9.40
2019-05-06T10:34:37.816Z,6.77
2019-05-06T10:38:39.706Z,6.40
2019-05-06T10:42:13.459Z,8.00
2019-05-06T10:45:39.449Z,14.87
2019-05-06T10:49:05.139Z,8.23
2019-05-06T10:52:33.305Z,11.03
2019-05-06T10:56:02.328Z,7.80
2019-05-06T10:59:28.135Z,8.77
2019-05-06T11:02:55.726Z,6.20
2019-05-06T11:06:22.132Z,13.53
2019-05-06T11:09:47.853Z,9.63
2019-05-06T11:13:13.444Z,10.17
2019-05-06T11:16:39.541Z,9.57
2019-05-06T11:20:10.238Z,9.43
2019-05-06T11:23:34.340Z,10.53
2019-05-06T11:27:03.400Z,10.67
2019-05-06T11:30:33.113Z,6.90
2019-05-06T11:34:00.599Z,5.40
2019-05-06T11:37:43.737Z,6.63
2019-05-06T11:40:57.700Z,12.60
2019-05-06T11:44:24.049Z,13.23
2019-05-06T11:47:49.905Z,10.63
2019-05-06T11:51:17.250Z,6.53
2019-05-06T11:54:42.928Z,8.80
2019-05-06T11:58:12.645Z,7.57
2019-05-06T12:01:39.279Z,9.83
2019-05-06T12:05:06.487Z,9.47
2019-05-06T12:08:33.326Z,8.77
2019-05-06T12:11:58.990Z,8.60
2019-05-06T12:15:26.123Z,12.47
2019-05-06T12:18:52.996Z,7.90
2019-05-06T12:22:18.765Z,8.20
2019-05-06T12:25:46.182Z,11.87
2019-05-06T12:29:12.668Z,9.13
2019-05-06T12:32:40.210Z,11.77
2019-05-06T12:36:12.837Z,8.57
2019-05-06T12:39:40.215Z,8.50
2019-05-06T12:43:23.682Z,8.83
2019-05-06T12:47:06.957Z,11.90
2019-05-06T12:50:33.188Z,8.57
2019-05-06T12:53:59.073Z,8.90
2019-05-06T12:57:24.669Z,10.23
2019-05-06T13:00:50.284Z,7.43
2019-05-06T13:04:16.122Z,8.53
2019-05-06T13:07:47.195Z,5.90
2019-05-06T13:11:13.295Z,8.03
2019-05-06T13:14:39.129Z,10.63
2019-05-06T13:18:07.025Z,11.87
2019-05-06T13:21:32.753Z,9.20
2019-05-06T13:24:58.593Z,8.50
2019-05-06T13:28:25.879Z,8.03
2019-05-06T13:31:53.052Z,8.60
2019-05-06T13:35:19.070Z,7.50
2019-05-06T13:38:44.656Z,8.07
2019-05-06T13:42:13.248Z,7.87
2019-05-06T13:45:42.420Z,10.47
2019-05-06T13:49:08.055Z,9.63
2019-05-06T13:52:35.298Z,13.73
2019-05-06T13:56:04.487Z,11.10
2019-05-06T13:59:30.465Z,9.87
2019-05-06T14:02:57.791Z,14.80
2019-05-06T14:06:23.462Z,9.33
2019-05-06T14:09:49.100Z,12.33
2019-05-06T14:13:15.921Z,12.67
2019-05-06T14:16:42.687Z,9.27
2019-05-06T14:20:09.270Z,8.97
2019-05-06T14:23:34.879Z,11.17
2019-05-06T14:27:11.318Z,9.47
2019-05-06T14:30:39.350Z,7.57
2019-05-06T14:34:05.015Z,10.20
2019-05-06T14:37:32.783Z,11.67
2019-05-06T14:41:07.255Z,9.43
2019-05-06T14:44:32.496Z,10.27
2019-05-06T14:47:57.138Z,7.83
2019-05-06T14:51:22.734Z,10.23
2019-05-06T14:54:53.505Z,7.77
2019-05-06T14:58:19.549Z,9.20
2019-05-06T15:01:45.790Z,9.17
2019-05-06T15:05:13.173Z,10.90
2019-05-06T15:08:39.594Z,7.00
2019-05-06T15:12:07.779Z,10.73
2019-05-06T15:15:33.997Z,13.53
2019-05-06T15:19:03.609Z,13.03
2019-05-06T15:22:29.146Z,7.93
2019-05-06T15:25:54.756Z,14.77
2019-05-06T15:29:23.480Z,9.33
2019-05-06T15:32:48.226Z,8.53
2019-05-06T15:36:22.309Z,12.00
2019-05-06T15:39:48.077Z,8.43
2019-05-06T15:43:14.169Z,9.40
2019-05-06T15:46:39.956Z,10.33
2019-05-06T15:50:07.481Z,9.10
2019-05-06T15:53:34.373Z,8.73
2019-05-06T15:57:00.003Z,7.87
2019-05-06T16:00:27.664Z,6.33
2019-05-06T16:03:53.833Z,9.57
2019-05-06T16:07:19.428Z,11.93
2019-05-06T16:10:52.420Z,8.80
2019-05-06T16:14:14.027Z,6.33
2019-05-06T16:17:39.671Z,9.03
2019-05-06T16:21:05.711Z,8.30
2019-05-06T16:24:42.830Z,7.17
2019-05-06T16:28:07.224Z,8.73
2019-05-06T16:31:34.480Z,7.70
2019-05-06T16:35:00.079Z,11.27
2019-05-06T16:38:25.697Z,9.73
2019-05-06T16:41:52.292Z,11.70
2019-05-06T16:45:19.679Z,6.50
2019-05-06T16:48:45.659Z,10.80
2019-05-06T16:52:12.977Z,9.03
2019-05-06T16:55:56.489Z,14.80
2019-05-06T16:59:23.868Z,10.80
2019-05-06T17:02:57.931Z,11.10
2019-05-06T17:06:25.110Z,9.70
2019-05-06T17:09:52.615Z,6.97
2019-05-06T17:13:18.024Z,11.87
2019-05-06T17:16:44.592Z,11.47
2019-05-06T17:20:12.199Z,8.00
2019-05-06T17:23:39.102Z,6.63
2019-05-06T17:27:05.638Z,9.63
2019-05-06T17:30:38.894Z,14.47
2019-05-06T17:34:09.620Z,12.30
2019-05-06T17:37:53.190Z,11.63
2019-05-06T17:41:19.567Z,12.97
2019-05-06T17:44:45.166Z,6.27
2019-05-06T17:48:27.520Z,8.87
2019-05-06T17:52:11.090Z,11.73
2019-05-06T17:55:36.716Z,10.57
2019-05-06T17:59:03.283Z,8.00
2019-05-06T18:02:29.346Z,8.63
2019-05-06T18:05:54.943Z,8.20
2019-05-06T18:09:22.308Z,13.17
2019-05-06T18:12:47.939Z,6.40
2019-05-06T18:16:13.628Z,12.57
2019-05-06T18:19:39.229Z,10.93
2019-05-06T18:23:06.270Z,10.27
2019-05-06T18:26:33.379Z,9.67
2019-05-06T18:30:13.426Z,12.90
2019-05-06T18:33:32.579Z,11.43
2019-05-06T18:36:58.750Z,12.37
2019-05-06T18:40:24.345Z,11.90
2019-05-06T18:43:50.199Z,14.67
2019-05-06T18:47:15.785Z,9.63
2019-05-06T18:50:42.442Z,15.17
2019-05-06T18:54:08.575Z,15.07
2019-05-06T18:57:34.347Z,13.47
2019-05-06T19:00:59.944Z,10.57
2019-05-06T19:04:42.475Z,13.07
2019-05-06T19:08:12.919Z,10.13
2019-05-06T19:11:38.561Z,13.00
2019-05-06T19:15:05.574Z,10.10
2019-05-06T19:18:31.202Z,12.53
2019-05-06T19:21:56.857Z,11.70
2019-05-06T19:25:22.795Z,11.13
2019-05-06T19:28:48.482Z,10.07
2019-05-06T19:32:15.403Z,11.03
2019-05-06T19:35:42.821Z,12.77
2019-05-06T19:39:09.436Z,13.13
2019-05-06T19:42:46.379Z,10.20
2019-05-06T19:46:02.695Z,6.93
2019-05-06T19:49:28.426Z,12.20
2019-05-06T19:52:54.046Z,10.00
2019-05-06T19:56:19.632Z,13.50
2019-05-06T19:59:45.228Z,12.17
2019-05-06T20:03:12.263Z,11.80
2019-05-06T20:06:42.090Z,10.53
2019-05-06T20:10:25.946Z,14.10
2019-05-06T20:13:52.597Z,8.83
2019-05-06T20:17:18.267Z,8.77
2019-05-06T20:20:44.686Z,13.50
2019-05-06T20:24:10.278Z,6.97
2019-05-06T20:27:35.917Z,12.30
2019-05-06T20:31:02.467Z,10.63
2019-05-06T20:34:28.232Z,14.53
2019-05-06T20:37:54.086Z,13.73
2019-05-06T20:41:22.043Z,11.40
2019-05-06T20:44:47.085Z,13.50
2019-05-06T20:48:13.040Z,17.90
2019-05-06T20:51:38.767Z,12.23
2019-05-06T20:55:12.411Z,12.53
2019-05-06T20:58:32.695Z,9.10
2019-05-06T21:01:58.821Z,12.53
2019-05-06T21:05:24.411Z,12.60
2019-05-06T21:08:50.011Z,11.63
2019-05-06T21:12:15.672Z,11.00
2019-05-06T21:15:43.280Z,10.17
2019-05-06T21:19:08.622Z,8.70
2019-05-06T21:22:34.473Z,10.27
2019-05-06T21:26:00.116Z,12.43
2019-05-06T21:29:25.714Z,14.87
2019-05-06T21:32:52.122Z,12.03
2019-05-06T21:36:17.779Z,18.10
2019-05-06T21:39:43.353Z,10.33
2019-05-06T21:43:12.835Z,15.87
2019-05-06T21:46:38.102Z,10.37
2019-05-06T21:50:04.139Z,10.80
2019-05-06T21:53:29.750Z,13.17
2019-05-06T21:56:55.418Z,15.37
2019-05-06T22:00:23.880Z,12.20
2019-05-06T22:03:51.075Z,11.27
2019-05-06T22:07:16.677Z,17.10
2019-05-06T22:10:42.412Z,9.63
2019-05-06T22:14:08.008Z,15.10
2019-05-06T22:17:33.589Z,12.43
2019-05-06T22:21:06.743Z,11.97
2019-05-06T22:24:39.705Z,12.40
2019-05-06T22:28:05.564Z,10.97
2019-05-06T22:31:33.072Z,11.13
2019-05-06T22:34:58.550Z,15.43
2019-05-06T22:38:24.131Z,16.17
2019-05-06T22:41:51.481Z,12.60
2019-05-06T22:45:17.325Z,11.77
2019-05-06T22:48:43.432Z,15.37
2019-05-06T22:52:09.073Z,10.73
2019-05-06T22:55:34.660Z,16.37
2019-05-06T22:59:00.256Z,16.70
2019-05-06T23:02:27.485Z,11.83
2019-05-06T23:05:53.091Z,13.17
2019-05-06T23:09:18.672Z,16.20
2019-05-06T23:12:44.344Z,13.03
2019-05-06T23:16:09.925Z,10.93
2019-05-06T23:19:35.576Z,12.70
2019-05-06T23:23:02.391Z,11.23
2019-05-06T23:26:28.740Z,13.70
2019-05-06T23:29:54.396Z,12.67
2019-05-06T23:33:20.023Z,10.17
2019-05-06T23:37:02.962Z,15.77
2019-05-06T23:41:24.716Z,20.10
2019-05-06T23:45:44.996Z,13.40
2019-05-06T23:50:06.179Z,12.67
2019-05-06T23:54:27.151Z,15.27
2019-05-06T23:57:52.604Z,17.27
